sensor_id;sensor_type;location;lat;lon;timestamp;pressure;altitude;pressure_sealevel;temperature;humidity
40502;BME280;29631;49.168;9.848;2023-03-18T00:00:20;96187.84;;;15.23;72.44
40502;BME280;29631;49.168;9.848;2023-03-18T00:02:47;96177.84;;;15.14;72.73
40502;BME280;29631;49.168;9.848;2023-03-18T00:05:13;96199.50;;;15.22;72.88
40502;BME280;29631;49.168;9.848;2023-03-18T00:07:39;96171.91;;;15.07;72.47
40502;BME280;29631;49.168;9.848;2023-03-18T00:10:07;96167.84;;;14.99;73.25
40502;BME280;29631;49.168;9.848;2023-03-18T00:12:36;96198.00;;;15.10;72.52
40502;BME280;29631;49.168;9.848;2023-03-18T00:15:08;96193.09;;;15.02;72.77
40502;BME280;29631;49.168;9.848;2023-03-18T00:17:35;96166.63;;;14.90;72.86
40502;BME280;29631;49.168;9.848;2023-03-18T00:20:04;96194.63;;;14.98;72.67
40502;BME280;29631;49.168;9.848;2023-03-18T00:22:36;96186.91;;;14.96;72.99
40502;BME280;29631;49.168;9.848;2023-03-18T00:25:04;96205.25;;;14.98;72.89
40502;BME280;29631;49.168;9.848;2023-03-18T00:27:32;96203.31;;;14.93;73.21
40502;BME280;29631;49.168;9.848;2023-03-18T00:29:58;96206.44;;;14.90;72.90
40502;BME280;29631;49.168;9.848;2023-03-18T00:32:27;96217.94;;;14.96;72.53
40502;BME280;29631;49.168;9.848;2023-03-18T00:34:54;96220.84;;;14.94;72.88
40502;BME280;29631;49.168;9.848;2023-03-18T00:37:21;96209.59;;;14.87;72.68
40502;BME280;29631;49.168;9.848;2023-03-18T00:40:01;96208.50;;;14.83;73.13
40502;BME280;29631;49.168;9.848;2023-03-18T00:42:38;96217.97;;;14.79;72.82
40502;BME280;29631;49.168;9.848;2023-03-18T00:45:12;96190.63;;;14.62;72.57
40502;BME280;29631;49.168;9.848;2023-03-18T00:47:39;96203.97;;;14.67;73.08
40502;BME280;29631;49.168;9.848;2023-03-18T00:50:08;96222.16;;;14.75;73.10
40502;BME280;29631;49.168;9.848;2023-03-18T00:52:35;96203.97;;;14.67;72.48
40502;BME280;29631;49.168;9.848;2023-03-18T00:55:03;96215.16;;;14.69;72.73
40502;BME280;29631;49.168;9.848;2023-03-18T00:57:29;96220.13;;;14.66;73.32
40502;BME280;29631;49.168;9.848;2023-03-18T00:59:56;96207.66;;;14.50;72.94
40502;BME280;29631;49.168;9.848;2023-03-18T01:02:24;96223.44;;;14.56;73.28
40502;BME280;29631;49.168;9.848;2023-03-18T01:04:50;96246.25;;;14.57;73.20
40502;BME280;29631;49.168;9.848;2023-03-18T01:07:16;96221.25;;;14.53;72.72
40502;BME280;29631;49.168;9.848;2023-03-18T01:09:42;96244.16;;;14.59;72.87
40502;BME280;29631;49.168;9.848;2023-03-18T01:12:10;96216.97;;;14.52;72.93
40502;BME280;29631;49.168;9.848;2023-03-18T01:14:38;96227.13;;;14.55;73.43
40502;BME280;29631;49.168;9.848;2023-03-18T01:17:05;96206.66;;;14.40;73.07
40502;BME280;29631;49.168;9.848;2023-03-18T01:19:31;96204.59;;;14.42;73.08
40502;BME280;29631;49.168;9.848;2023-03-18T01:21:58;96223.25;;;14.47;73.26
40502;BME280;29631;49.168;9.848;2023-03-18T01:24:24;96201.28;;;14.35;72.83
40502;BME280;29631;49.168;9.848;2023-03-18T01:26:51;96195.06;;;14.29;73.53
40502;BME280;29631;49.168;9.848;2023-03-18T01:29:17;96219.84;;;14.35;73.41
40502;BME280;29631;49.168;9.848;2023-03-18T01:31:43;96202.72;;;14.26;72.58
40502;BME280;29631;49.168;9.848;2023-03-18T01:34:09;96224.03;;;14.31;73.74
40502;BME280;29631;49.168;9.848;2023-03-18T01:36:35;96233.47;;;14.27;72.89
40502;BME280;29631;49.168;9.848;2023-03-18T01:39:01;96222.09;;;14.26;73.08
40502;BME280;29631;49.168;9.848;2023-03-18T01:41:27;96212.28;;;14.27;73.59
40502;BME280;29631;49.168;9.848;2023-03-18T01:43:53;96209.53;;;14.22;73.29
40502;BME280;29631;49.168;9.848;2023-03-18T01:46:41;96219.09;;;14.23;73.69
40502;BME280;29631;49.168;9.848;2023-03-18T01:49:23;96224.97;;;14.25;73.72
40502;BME280;29631;49.168;9.848;2023-03-18T01:52:06;96232.94;;;14.25;73.72
40502;BME280;29631;49.168;9.848;2023-03-18T01:54:39;96225.94;;;14.19;73.64
40502;BME280;29631;49.168;9.848;2023-03-18T01:57:06;96225.59;;;14.15;73.18
40502;BME280;29631;49.168;9.848;2023-03-18T01:59:34;96237.34;;;14.19;73.75
40502;BME280;29631;49.168;9.848;2023-03-18T02:02:06;96209.13;;;14.02;73.78
40502;BME280;29631;49.168;9.848;2023-03-18T02:04:46;96224.09;;;14.08;73.71
40502;BME280;29631;49.168;9.848;2023-03-18T02:07:23;96216.38;;;14.06;73.71
40502;BME280;29631;49.168;9.848;2023-03-18T02:09:51;96242.53;;;14.14;74.14
40502;BME280;29631;49.168;9.848;2023-03-18T02:12:25;96228.97;;;14.11;73.84
40502;BME280;29631;49.168;9.848;2023-03-18T02:14:51;96220.56;;;14.02;74.07
40502;BME280;29631;49.168;9.848;2023-03-18T02:17:28;96219.19;;;14.00;73.79
40502;BME280;29631;49.168;9.848;2023-03-18T02:20:35;96250.97;;;14.11;73.99
40502;BME280;29631;49.168;9.848;2023-03-18T02:29:16;96186.41;;;13.78;74.12
40502;BME280;29631;49.168;9.848;2023-03-18T02:31:44;96215.88;;;13.93;74.21
40502;BME280;29631;49.168;9.848;2023-03-18T02:34:11;96224.38;;;13.95;73.93
40502;BME280;29631;49.168;9.848;2023-03-18T02:36:37;96234.84;;;14.01;74.07
40502;BME280;29631;49.168;9.848;2023-03-18T02:39:04;96213.44;;;13.91;74.02
40502;BME280;29631;49.168;9.848;2023-03-18T02:41:33;96238.38;;;14.07;73.92
40502;BME280;29631;49.168;9.848;2023-03-18T02:44:01;96228.25;;;14.04;74.55
40502;BME280;29631;49.168;9.848;2023-03-18T02:46:39;96239.56;;;14.11;74.36
40502;BME280;29631;49.168;9.848;2023-03-18T02:49:08;96229.28;;;14.03;74.54
40502;BME280;29631;49.168;9.848;2023-03-18T02:51:36;96206.84;;;13.94;74.50
40502;BME280;29631;49.168;9.848;2023-03-18T02:54:12;96230.56;;;14.12;74.69
40502;BME280;29631;49.168;9.848;2023-03-18T02:56:40;96229.53;;;14.13;74.19
40502;BME280;29631;49.168;9.848;2023-03-18T02:59:07;96226.88;;;14.13;74.45
40502;BME280;29631;49.168;9.848;2023-03-18T03:01:34;96245.38;;;14.24;74.68
40502;BME280;29631;49.168;9.848;2023-03-18T03:04:01;96239.66;;;14.16;74.68
40502;BME280;29631;49.168;9.848;2023-03-18T03:06:27;96248.28;;;14.23;74.72
40502;BME280;29631;49.168;9.848;2023-03-18T03:08:53;96247.81;;;14.26;74.79
40502;BME280;29631;49.168;9.848;2023-03-18T03:11:20;96225.28;;;14.12;75.02
40502;BME280;29631;49.168;9.848;2023-03-18T03:13:47;96228.59;;;14.07;74.66
40502;BME280;29631;49.168;9.848;2023-03-18T03:16:14;96236.53;;;14.19;75.04
40502;BME280;29631;49.168;9.848;2023-03-18T03:18:41;96242.19;;;14.22;74.66
40502;BME280;29631;49.168;9.848;2023-03-18T03:21:08;96251.97;;;14.22;74.45
40502;BME280;29631;49.168;9.848;2023-03-18T03:23:35;96254.03;;;14.20;74.91
40502;BME280;29631;49.168;9.848;2023-03-18T03:26:02;96185.16;;;13.69;74.90
40502;BME280;29631;49.168;9.848;2023-03-18T03:28:29;96259.56;;;14.18;74.65
40502;BME280;29631;49.168;9.848;2023-03-18T03:30:57;96242.44;;;14.09;75.33
40502;BME280;29631;49.168;9.848;2023-03-18T03:33:24;96273.09;;;14.17;74.71
40502;BME280;29631;49.168;9.848;2023-03-18T03:35:50;96266.75;;;14.18;75.31
40502;BME280;29631;49.168;9.848;2023-03-18T03:38:16;96265.91;;;14.17;75.27
40502;BME280;29631;49.168;9.848;2023-03-18T03:40:43;96268.72;;;14.11;75.69
40502;BME280;29631;49.168;9.848;2023-03-18T03:43:13;96254.28;;;14.07;75.37
40502;BME280;29631;49.168;9.848;2023-03-18T03:45:41;96270.34;;;14.12;75.46
40502;BME280;29631;49.168;9.848;2023-03-18T03:48:08;96239.72;;;13.93;75.05
40502;BME280;29631;49.168;9.848;2023-03-18T03:50:35;96236.50;;;13.91;75.10
40502;BME280;29631;49.168;9.848;2023-03-18T03:53:02;96275.28;;;14.08;75.03
40502;BME280;29631;49.168;9.848;2023-03-18T03:55:30;96272.63;;;14.08;75.33
40502;BME280;29631;49.168;9.848;2023-03-18T03:57:56;96272.84;;;14.07;75.33
40502;BME280;29631;49.168;9.848;2023-03-18T04:00:23;96260.53;;;14.01;75.27
40502;BME280;29631;49.168;9.848;2023-03-18T04:02:50;96280.78;;;14.07;75.36
40502;BME280;29631;49.168;9.848;2023-03-18T04:05:19;96250.88;;;13.95;74.96
40502;BME280;29631;49.168;9.848;2023-03-18T04:07:47;96286.91;;;14.07;75.36
40502;BME280;29631;49.168;9.848;2023-03-18T04:10:16;96269.53;;;14.00;75.25
40502;BME280;29631;49.168;9.848;2023-03-18T04:12:43;96268.13;;;13.97;74.98
40502;BME280;29631;49.168;9.848;2023-03-18T04:15:11;96306.88;;;14.10;75.26
40502;BME280;29631;49.168;9.848;2023-03-18T04:17:38;96288.09;;;14.00;75.04
40502;BME280;29631;49.168;9.848;2023-03-18T04:20:05;96279.19;;;14.06;75.66
40502;BME280;29631;49.168;9.848;2023-03-18T04:22:31;96293.81;;;14.08;75.70
40502;BME280;29631;49.168;9.848;2023-03-18T04:24:57;96295.09;;;14.06;75.55
40502;BME280;29631;49.168;9.848;2023-03-18T04:27:24;96298.69;;;14.11;75.30
40502;BME280;29631;49.168;9.848;2023-03-18T04:29:50;96288.66;;;14.02;75.64
40502;BME280;29631;49.168;9.848;2023-03-18T04:32:15;96296.94;;;14.05;75.16
40502;BME280;29631;49.168;9.848;2023-03-18T04:34:41;96307.28;;;14.07;75.69
40502;BME280;29631;49.168;9.848;2023-03-18T04:37:07;96289.13;;;13.99;75.34
40502;BME280;29631;49.168;9.848;2023-03-18T04:39:33;96273.94;;;13.83;75.31
40502;BME280;29631;49.168;9.848;2023-03-18T04:41:59;96292.13;;;13.91;75.51
40502;BME280;29631;49.168;9.848;2023-03-18T04:44:25;96214.28;;;13.41;75.41
40502;BME280;29631;49.168;9.848;2023-03-18T04:46:51;96292.59;;;13.88;75.84
40502;BME280;29631;49.168;9.848;2023-03-18T04:49:19;96289.84;;;13.83;75.27
40502;BME280;29631;49.168;9.848;2023-03-18T04:51:45;96277.88;;;13.69;75.28
40502;BME280;29631;49.168;9.848;2023-03-18T04:54:12;96297.69;;;13.78;75.23
40502;BME280;29631;49.168;9.848;2023-03-18T04:56:38;96284.94;;;13.64;75.32
40502;BME280;29631;49.168;9.848;2023-03-18T04:59:05;96285.28;;;13.67;75.29
40502;BME280;29631;49.168;9.848;2023-03-18T05:01:31;96268.56;;;13.55;75.25
40502;BME280;29631;49.168;9.848;2023-03-18T05:03:58;96308.75;;;13.75;75.29
40502;BME280;29631;49.168;9.848;2023-03-18T05:06:29;96286.53;;;13.65;74.94
40502;BME280;29631;49.168;9.848;2023-03-18T05:08:56;96297.47;;;13.68;74.86
40502;BME280;29631;49.168;9.848;2023-03-18T05:11:23;96232.22;;;13.28;75.14
40502;BME280;29631;49.168;9.848;2023-03-18T05:13:50;96301.19;;;13.67;75.33
40502;BME280;29631;49.168;9.848;2023-03-18T05:16:16;96294.25;;;13.66;75.36
40502;BME280;29631;49.168;9.848;2023-03-18T05:18:43;96266.84;;;13.49;75.42
40502;BME280;29631;49.168;9.848;2023-03-18T05:21:09;96301.28;;;13.61;75.44
40502;BME280;29631;49.168;9.848;2023-03-18T05:23:37;96299.22;;;13.63;75.09
40502;BME280;29631;49.168;9.848;2023-03-18T05:26:04;96296.31;;;13.64;75.64
40502;BME280;29631;49.168;9.848;2023-03-18T05:28:31;96286.66;;;13.58;75.52
40502;BME280;29631;49.168;9.848;2023-03-18T05:30:58;96302.66;;;13.63;75.63
40502;BME280;29631;49.168;9.848;2023-03-18T05:33:24;96296.47;;;13.58;75.34
40502;BME280;29631;49.168;9.848;2023-03-18T05:35:50;96288.28;;;13.59;74.94
40502;BME280;29631;49.168;9.848;2023-03-18T05:38:17;96295.75;;;13.62;74.78
40502;BME280;29631;49.168;9.848;2023-03-18T05:40:43;96303.69;;;13.62;74.88
40502;BME280;29631;49.168;9.848;2023-03-18T05:43:09;96308.44;;;13.60;74.32
40502;BME280;29631;49.168;9.848;2023-03-18T05:45:36;96319.59;;;13.62;74.81
40502;BME280;29631;49.168;9.848;2023-03-18T05:48:05;96320.41;;;13.63;74.60
40502;BME280;29631;49.168;9.848;2023-03-18T05:50:35;96297.84;;;13.49;74.70
40502;BME280;29631;49.168;9.848;2023-03-18T05:53:02;96301.88;;;13.51;74.85
40502;BME280;29631;49.168;9.848;2023-03-18T05:55:28;96302.91;;;13.50;74.57
40502;BME280;29631;49.168;9.848;2023-03-18T05:57:55;96312.94;;;13.48;74.79
40502;BME280;29631;49.168;9.848;2023-03-18T06:00:22;96309.34;;;13.43;74.72
40502;BME280;29631;49.168;9.848;2023-03-18T06:02:49;96312.59;;;13.45;74.91
40502;BME280;29631;49.168;9.848;2023-03-18T06:05:17;96312.59;;;13.45;75.30
40502;BME280;29631;49.168;9.848;2023-03-18T06:07:44;96312.59;;;13.45;74.79
40502;BME280;29631;49.168;9.848;2023-03-18T06:10:10;96321.91;;;13.47;74.74
40502;BME280;29631;49.168;9.848;2023-03-18T06:12:37;96303.25;;;13.42;74.84
40502;BME280;29631;49.168;9.848;2023-03-18T06:15:06;96292.53;;;13.37;74.99
40502;BME280;29631;49.168;9.848;2023-03-18T06:17:32;96317.75;;;13.51;75.03
40502;BME280;29631;49.168;9.848;2023-03-18T06:19:58;96311.88;;;13.49;75.11
40502;BME280;29631;49.168;9.848;2023-03-18T06:22:24;96316.47;;;13.54;74.29
40502;BME280;29631;49.168;9.848;2023-03-18T06:24:51;96312.81;;;13.55;74.22
40502;BME280;29631;49.168;9.848;2023-03-18T06:27:17;96299.91;;;13.47;74.48
40502;BME280;29631;49.168;9.848;2023-03-18T06:29:43;96317.53;;;13.64;74.87
40502;BME280;29631;49.168;9.848;2023-03-18T06:32:10;96310.25;;;13.60;74.84
40502;BME280;29631;49.168;9.848;2023-03-18T06:34:36;96318.44;;;13.70;74.83
40502;BME280;29631;49.168;9.848;2023-03-18T06:37:03;96335.94;;;13.82;74.93
40502;BME280;29631;49.168;9.848;2023-03-18T06:39:29;96323.84;;;13.75;74.37
40502;BME280;29631;49.168;9.848;2023-03-18T06:41:54;96315.66;;;13.76;75.43
40502;BME280;29631;49.168;9.848;2023-03-18T06:44:21;96319.22;;;13.81;75.05
40502;BME280;29631;49.168;9.848;2023-03-18T06:46:47;96340.44;;;13.93;75.28
40502;BME280;29631;49.168;9.848;2023-03-18T06:49:13;96337.88;;;13.98;74.98
40502;BME280;29631;49.168;9.848;2023-03-18T06:51:41;96319.09;;;13.88;75.20
40502;BME280;29631;49.168;9.848;2023-03-18T06:54:07;96325.91;;;13.95;75.43
40502;BME280;29631;49.168;9.848;2023-03-18T06:56:34;96335.91;;;14.05;74.69
40502;BME280;29631;49.168;9.848;2023-03-18T06:59:04;96326.09;;;14.05;75.50
40502;BME280;29631;49.168;9.848;2023-03-18T07:01:30;96314.13;;;14.03;75.26
40502;BME280;29631;49.168;9.848;2023-03-18T07:03:58;96301.22;;;13.95;75.15
40502;BME280;29631;49.168;9.848;2023-03-18T07:06:26;96332.19;;;14.17;75.39
40502;BME280;29631;49.168;9.848;2023-03-18T07:08:52;96341.66;;;14.25;75.51
40502;BME280;29631;49.168;9.848;2023-03-18T07:11:19;96335.78;;;14.23;75.20
40502;BME280;29631;49.168;9.848;2023-03-18T07:13:44;96341.50;;;14.31;75.18
40502;BME280;29631;49.168;9.848;2023-03-18T07:16:10;96343.91;;;14.33;74.64
40502;BME280;29631;49.168;9.848;2023-03-18T07:18:36;96346.19;;;14.41;74.81
40502;BME280;29631;49.168;9.848;2023-03-18T07:21:03;96315.59;;;14.22;75.15
40502;BME280;29631;49.168;9.848;2023-03-18T07:23:29;96341.03;;;14.34;75.31
40502;BME280;29631;49.168;9.848;2023-03-18T07:25:54;96337.69;;;14.39;75.03
40502;BME280;29631;49.168;9.848;2023-03-18T07:28:20;96335.25;;;14.37;74.47
40502;BME280;29631;49.168;9.848;2023-03-18T07:30:46;96366.69;;;14.56;75.17
40502;BME280;29631;49.168;9.848;2023-03-18T07:33:12;96367.91;;;14.65;75.31
40502;BME280;29631;49.168;9.848;2023-03-18T07:35:38;96368.47;;;14.67;75.05
40502;BME280;29631;49.168;9.848;2023-03-18T07:38:07;96374.69;;;14.73;74.62
40502;BME280;29631;49.168;9.848;2023-03-18T07:40:34;96365.91;;;14.72;74.71
40502;BME280;29631;49.168;9.848;2023-03-18T07:43:00;96363.25;;;14.72;75.03
40502;BME280;29631;49.168;9.848;2023-03-18T07:45:26;96356.59;;;14.70;75.02
40502;BME280;29631;49.168;9.848;2023-03-18T07:47:52;96367.72;;;14.83;75.40
40502;BME280;29631;49.168;9.848;2023-03-18T07:50:18;96366.66;;;14.84;74.94
40502;BME280;29631;49.168;9.848;2023-03-18T07:52:44;96351.31;;;14.86;74.54
40502;BME280;29631;49.168;9.848;2023-03-18T07:55:10;96312.28;;;14.70;74.49
40502;BME280;29631;49.168;9.848;2023-03-18T07:57:37;96367.13;;;15.09;74.90
40502;BME280;29631;49.168;9.848;2023-03-18T08:00:08;96368.00;;;15.15;75.25
40502;BME280;29631;49.168;9.848;2023-03-18T08:02:35;96384.06;;;15.36;75.03
40502;BME280;29631;49.168;9.848;2023-03-18T08:05:02;96378.28;;;15.39;74.61
40502;BME280;29631;49.168;9.848;2023-03-18T08:07:28;96367.16;;;15.42;74.77
40502;BME280;29631;49.168;9.848;2023-03-18T08:09:54;96358.00;;;15.49;74.50
40502;BME280;29631;49.168;9.848;2023-03-18T08:12:20;96347.38;;;15.49;74.51
40502;BME280;29631;49.168;9.848;2023-03-18T08:14:46;96365.25;;;15.70;74.41
40502;BME280;29631;49.168;9.848;2023-03-18T08:17:13;96391.56;;;15.88;74.66
40502;BME280;29631;49.168;9.848;2023-03-18T08:19:39;96362.13;;;15.95;74.37
40502;BME280;29631;49.168;9.848;2023-03-18T08:22:04;96386.91;;;16.16;74.11
40502;BME280;29631;49.168;9.848;2023-03-18T08:24:30;96358.06;;;16.08;74.75
40502;BME280;29631;49.168;9.848;2023-03-18T08:26:57;96352.38;;;16.21;74.27
40502;BME280;29631;49.168;9.848;2023-03-18T08:29:22;96377.81;;;16.50;73.57
40502;BME280;29631;49.168;9.848;2023-03-18T08:31:48;96376.50;;;16.53;73.91
40502;BME280;29631;49.168;9.848;2023-03-18T08:34:14;96373.69;;;16.64;73.75
40502;BME280;29631;49.168;9.848;2023-03-18T08:36:41;96360.16;;;16.66;74.21
40502;BME280;29631;49.168;9.848;2023-03-18T08:39:08;96378.44;;;16.83;73.23
40502;BME280;29631;49.168;9.848;2023-03-18T08:41:34;96375.09;;;16.93;73.29
40502;BME280;29631;49.168;9.848;2023-03-18T08:44:02;96370.41;;;17.05;73.24
40502;BME280;29631;49.168;9.848;2023-03-18T08:46:28;96368.31;;;17.07;73.19
40502;BME280;29631;49.168;9.848;2023-03-18T08:48:54;96361.97;;;17.13;72.98
40502;BME280;29631;49.168;9.848;2023-03-18T08:51:20;96386.72;;;17.35;73.33
40502;BME280;29631;49.168;9.848;2023-03-18T08:53:47;96386.00;;;17.44;73.27
40502;BME280;29631;49.168;9.848;2023-03-18T08:56:13;96367.59;;;17.43;72.58
40502;BME280;29631;49.168;9.848;2023-03-18T08:58:40;96356.44;;;17.46;73.22
40502;BME280;29631;49.168;9.848;2023-03-18T09:01:08;96352.78;;;17.56;73.02
40502;BME280;29631;49.168;9.848;2023-03-18T09:03:34;96370.34;;;17.89;73.19
40502;BME280;29631;49.168;9.848;2023-03-18T09:06:01;96311.72;;;17.57;72.33
40502;BME280;29631;49.168;9.848;2023-03-18T09:08:27;96361.91;;;18.07;73.08
40502;BME280;29631;49.168;9.848;2023-03-18T09:10:55;96367.13;;;18.28;73.06
40502;BME280;29631;49.168;9.848;2023-03-18T09:13:22;96372.00;;;18.41;73.33
40502;BME280;29631;49.168;9.848;2023-03-18T09:15:48;96317.91;;;18.14;72.88
40502;BME280;29631;49.168;9.848;2023-03-18T09:18:16;96345.31;;;18.46;72.95
40502;BME280;29631;49.168;9.848;2023-03-18T09:20:44;96360.34;;;18.62;73.26
40502;BME280;29631;49.168;9.848;2023-03-18T09:23:11;96364.13;;;18.76;72.92
40502;BME280;29631;49.168;9.848;2023-03-18T09:25:39;96375.41;;;18.97;73.03
40502;BME280;29631;49.168;9.848;2023-03-18T09:28:07;96360.97;;;18.98;72.81
40502;BME280;29631;49.168;9.848;2023-03-18T09:30:33;96368.28;;;19.18;72.74
40502;BME280;29631;49.168;9.848;2023-03-18T09:32:59;96377.63;;;19.30;72.09
40502;BME280;29631;49.168;9.848;2023-03-18T09:35:25;96298.97;;;18.92;71.55
40502;BME280;29631;49.168;9.848;2023-03-18T09:37:50;96369.66;;;19.40;71.48
40502;BME280;29631;49.168;9.848;2023-03-18T09:40:30;96340.47;;;19.39;71.13
40502;BME280;29631;49.168;9.848;2023-03-18T09:46:22;96361.59;;;19.90;70.72
40502;BME280;29631;49.168;9.848;2023-03-18T09:57:38;96351.84;;;20.48;69.48
40502;BME280;29631;49.168;9.848;2023-03-18T10:02:56;96342.09;;;20.67;68.82
40502;BME280;29631;49.168;9.848;2023-03-18T10:06:14;96356.25;;;20.73;69.03
40502;BME280;29631;49.168;9.848;2023-03-18T10:09:25;96354.91;;;20.85;69.44
40502;BME280;29631;49.168;9.848;2023-03-18T10:12:29;96355.41;;;20.92;68.76
40502;BME280;29631;49.168;9.848;2023-03-18T10:15:21;96355.16;;;20.89;68.23
40502;BME280;29631;49.168;9.848;2023-03-18T10:18:11;96356.50;;;20.86;68.96
40502;BME280;29631;49.168;9.848;2023-03-18T10:26:29;96351.66;;;20.93;67.91
40502;BME280;29631;49.168;9.848;2023-03-18T10:29:17;96354.88;;;20.95;67.51
40502;BME280;29631;49.168;9.848;2023-03-18T10:37:35;96336.59;;;20.97;67.15
40502;BME280;29631;49.168;9.848;2023-03-18T10:40:16;96352.31;;;21.14;66.77
40502;BME280;29631;49.168;9.848;2023-03-18T10:42:44;96348.81;;;21.18;66.96
40502;BME280;29631;49.168;9.848;2023-03-18T10:48:03;96329.38;;;21.36;66.70
40502;BME280;29631;49.168;9.848;2023-03-18T10:50:45;96336.34;;;21.37;66.60
40502;BME280;29631;49.168;9.848;2023-03-18T10:53:38;96348.03;;;21.51;66.53
40502;BME280;29631;49.168;9.848;2023-03-18T10:56:11;96351.50;;;21.51;66.51
40502;BME280;29631;49.168;9.848;2023-03-18T10:58:39;96335.88;;;21.63;66.26
40502;BME280;29631;49.168;9.848;2023-03-18T11:01:09;96288.38;;;21.30;66.32
40502;BME280;29631;49.168;9.848;2023-03-18T11:03:43;96326.72;;;21.69;66.42
40502;BME280;29631;49.168;9.848;2023-03-18T11:06:21;96320.50;;;21.74;66.40
40502;BME280;29631;49.168;9.848;2023-03-18T11:08:49;96309.75;;;21.74;66.22
40502;BME280;29631;49.168;9.848;2023-03-18T11:11:29;96326.56;;;21.84;65.79
40502;BME280;29631;49.168;9.848;2023-03-18T11:14:04;96321.97;;;21.90;65.18
40502;BME280;29631;49.168;9.848;2023-03-18T11:19:39;96328.22;;;22.08;65.80
40502;BME280;29631;49.168;9.848;2023-03-18T11:24:37;96324.19;;;22.34;66.41
40502;BME280;29631;49.168;9.848;2023-03-18T11:29:56;96321.34;;;22.49;65.69
40502;BME280;29631;49.168;9.848;2023-03-18T11:32:28;96312.91;;;22.56;65.57
40502;BME280;29631;49.168;9.848;2023-03-18T11:35:00;96307.16;;;22.44;65.99
40502;BME280;29631;49.168;9.848;2023-03-18T11:37:36;96319.09;;;22.56;64.53
40502;BME280;29631;49.168;9.848;2023-03-18T11:40:26;96304.78;;;22.61;65.11
40502;BME280;29631;49.168;9.848;2023-03-18T11:43:01;96294.25;;;22.64;64.99
40502;BME280;29631;49.168;9.848;2023-03-18T11:45:56;96272.75;;;22.64;66.00
40502;BME280;29631;49.168;9.848;2023-03-18T11:48:37;96292.88;;;22.85;65.48
40502;BME280;29631;49.168;9.848;2023-03-18T11:51:20;96298.59;;;23.02;65.71
40502;BME280;29631;49.168;9.848;2023-03-18T12:02:29;96282.09;;;23.27;66.25
40502;BME280;29631;49.168;9.848;2023-03-18T12:13:29;96276.16;;;23.43;66.33
40502;BME280;29631;49.168;9.848;2023-03-18T12:16:12;96277.59;;;23.54;66.46
40502;BME280;29631;49.168;9.848;2023-03-18T12:22:03;96270.19;;;23.59;66.30
40502;BME280;29631;49.168;9.848;2023-03-18T12:28:34;96274.84;;;23.72;65.30
40502;BME280;29631;49.168;9.848;2023-03-18T12:30:55;96270.50;;;23.76;65.39
40502;BME280;29631;49.168;9.848;2023-03-18T12:33:47;96262.81;;;23.83;66.07
40502;BME280;29631;49.168;9.848;2023-03-18T12:39:33;96255.34;;;23.94;65.08
40502;BME280;29631;49.168;9.848;2023-03-18T12:45:19;96255.16;;;24.04;65.66
40502;BME280;29631;49.168;9.848;2023-03-18T12:48:02;96235.00;;;24.01;65.62
40502;BME280;29631;49.168;9.848;2023-03-18T12:50:38;96226.91;;;24.01;64.83
40502;BME280;29631;49.168;9.848;2023-03-18T12:53:25;96229.03;;;24.04;64.74
40502;BME280;29631;49.168;9.848;2023-03-18T12:55:58;96204.97;;;23.94;64.28
40502;BME280;29631;49.168;9.848;2023-03-18T12:58:35;96220.22;;;24.12;65.26
40502;BME280;29631;49.168;9.848;2023-03-18T13:01:40;96223.19;;;24.24;65.96
40502;BME280;29631;49.168;9.848;2023-03-18T13:04:18;96148.88;;;23.83;65.23
40502;BME280;29631;49.168;9.848;2023-03-18T13:07:42;96216.81;;;24.33;64.68
40502;BME280;29631;49.168;9.848;2023-03-18T13:10:23;96230.63;;;24.45;64.62
40502;BME280;29631;49.168;9.848;2023-03-18T13:12:56;96228.13;;;24.49;65.01
40502;BME280;29631;49.168;9.848;2023-03-18T13:15:38;96227.19;;;24.53;65.05
40502;BME280;29631;49.168;9.848;2023-03-18T13:18:30;96224.22;;;24.55;64.93
40502;BME280;29631;49.168;9.848;2023-03-18T13:20:58;96227.88;;;24.59;64.99
40502;BME280;29631;49.168;9.848;2023-03-18T13:26:17;96220.94;;;24.80;65.41
40502;BME280;29631;49.168;9.848;2023-03-18T13:29:22;96221.53;;;24.90;65.30
40502;BME280;29631;49.168;9.848;2023-03-18T13:38:35;96205.75;;;25.49;64.96
40502;BME280;29631;49.168;9.848;2023-03-18T13:43:51;96202.78;;;25.59;64.54
40502;BME280;29631;49.168;9.848;2023-03-18T13:46:25;96126.69;;;25.27;64.75
40502;BME280;29631;49.168;9.848;2023-03-18T13:48:57;96181.84;;;25.86;63.92
40502;BME280;29631;49.168;9.848;2023-03-18T13:53:51;96194.34;;;26.30;63.25
40502;BME280;29631;49.168;9.848;2023-03-18T14:04:58;96195.25;;;26.08;64.05
40502;BME280;29631;49.168;9.848;2023-03-18T14:07:26;96182.19;;;25.93;63.41
40502;BME280;29631;49.168;9.848;2023-03-18T14:17:47;96193.78;;;25.94;62.20
40502;BME280;29631;49.168;9.848;2023-03-18T14:20:23;96171.03;;;25.86;62.12
40502;BME280;29631;49.168;9.848;2023-03-18T14:22:55;96164.34;;;25.84;62.74
40502;BME280;29631;49.168;9.848;2023-03-18T14:36:02;96186.25;;;25.82;63.59
40502;BME280;29631;49.168;9.848;2023-03-18T14:39:01;96185.63;;;25.77;63.27
40502;BME280;29631;49.168;9.848;2023-03-18T14:41:29;96173.94;;;25.68;62.91
40502;BME280;29631;49.168;9.848;2023-03-18T14:46:37;96173.75;;;25.64;62.20
40502;BME280;29631;49.168;9.848;2023-03-18T14:49:33;96174.38;;;25.62;61.83
40502;BME280;29631;49.168;9.848;2023-03-18T14:52:09;96161.81;;;25.57;62.19
40502;BME280;29631;49.168;9.848;2023-03-18T14:54:42;96155.41;;;25.53;62.34
40502;BME280;29631;49.168;9.848;2023-03-18T14:57:09;96152.84;;;25.48;62.38
40502;BME280;29631;49.168;9.848;2023-03-18T14:59:35;96162.06;;;25.47;62.42
40502;BME280;29631;49.168;9.848;2023-03-18T15:02:02;96152.50;;;25.41;62.18
40502;BME280;29631;49.168;9.848;2023-03-18T15:04:34;96161.88;;;25.44;62.43
40502;BME280;29631;49.168;9.848;2023-03-18T15:07:03;96158.03;;;25.36;62.35
40502;BME280;29631;49.168;9.848;2023-03-18T15:09:34;96135.53;;;25.19;62.04
40502;BME280;29631;49.168;9.848;2023-03-18T15:12:21;96150.22;;;25.26;61.20
40502;BME280;29631;49.168;9.848;2023-03-18T15:14:49;96157.19;;;25.27;61.06